sensor_id;sensor_type;location;lat;lon;timestamp;P1;durP1;ratioP1;P2;durP2;ratioP2
67726;SDS011;54525;55.680;37.540;2022-08-20T00:00:50;30.88;;;12.32;;
67726;SDS011;54525;55.680;37.540;2022-08-20T00:05:54;18.13;;;12.43;;
67726;SDS011;54525;55.680;37.540;2022-08-20T00:08:30;20.30;;;14.82;;
67726;SDS011;54525;55.680;37.540;2022-08-20T00:10:57;28.75;;;15.30;;
67726;SDS011;54525;55.680;37.540;2022-08-20T00:13:25;20.27;;;12.35;;
67726;SDS011;54525;55.680;37.540;2022-08-20T00:15:52;21.33;;;13.68;;
67726;SDS011;54525;55.680;37.540;2022-08-20T00:18:18;20.05;;;13.60;;
67726;SDS011;54525;55.680;37.540;2022-08-20T00:20:46;21.77;;;14.40;;
67726;SDS011;54525;55.680;37.540;2022-08-20T00:23:13;22.70;;;14.98;;
67726;SDS011;54525;55.680;37.540;2022-08-20T00:25:40;19.77;;;13.70;;
67726;SDS011;54525;55.680;37.540;2022-08-20T00:28:07;23.70;;;13.63;;
67726;SDS011;54525;55.680;37.540;2022-08-20T00:30:34;24.33;;;13.45;;
67726;SDS011;54525;55.680;37.540;2022-08-20T00:33:02;20.30;;;14.98;;
67726;SDS011;54525;55.680;37.540;2022-08-20T00:35:31;19.65;;;13.95;;
67726;SDS011;54525;55.680;37.540;2022-08-20T00:38:00;26.83;;;14.43;;
67726;SDS011;54525;55.680;37.540;2022-08-20T00:40:33;23.20;;;14.00;;
67726;SDS011;54525;55.680;37.540;2022-08-20T00:43:04;23.70;;;13.88;;
67726;SDS011;54525;55.680;37.540;2022-08-20T00:45:33;24.02;;;15.55;;
67726;SDS011;54525;55.680;37.540;2022-08-20T00:48:00;20.15;;;15.60;;
67726;SDS011;54525;55.680;37.540;2022-08-20T00:50:28;21.48;;;14.00;;
67726;SDS011;54525;55.680;37.540;2022-08-20T00:52:59;20.25;;;13.45;;
67726;SDS011;54525;55.680;37.540;2022-08-20T00:55:26;29.23;;;15.13;;
67726;SDS011;54525;55.680;37.540;2022-08-20T00:57:55;21.67;;;13.27;;
67726;SDS011;54525;55.680;37.540;2022-08-20T01:00:25;20.05;;;13.77;;
67726;SDS011;54525;55.680;37.540;2022-08-20T01:02:54;23.17;;;13.43;;
67726;SDS011;54525;55.680;37.540;2022-08-20T01:05:21;20.20;;;14.65;;
67726;SDS011;54525;55.680;37.540;2022-08-20T01:07:48;22.67;;;13.70;;
67726;SDS011;54525;55.680;37.540;2022-08-20T01:10:20;24.90;;;14.80;;
67726;SDS011;54525;55.680;37.540;2022-08-20T01:12:51;20.27;;;13.65;;
67726;SDS011;54525;55.680;37.540;2022-08-20T01:15:19;21.58;;;13.95;;
67726;SDS011;54525;55.680;37.540;2022-08-20T01:17:50;18.77;;;12.77;;
67726;SDS011;54525;55.680;37.540;2022-08-20T01:20:25;22.00;;;12.93;;
67726;SDS011;54525;55.680;37.540;2022-08-20T01:26:16;20.83;;;13.48;;
67726;SDS011;54525;55.680;37.540;2022-08-20T01:28:48;17.60;;;12.80;;
67726;SDS011;54525;55.680;37.540;2022-08-20T01:31:19;18.45;;;12.18;;
67726;SDS011;54525;55.680;37.540;2022-08-20T01:33:51;21.13;;;13.25;;
67726;SDS011;54525;55.680;37.540;2022-08-20T01:36:22;20.30;;;12.23;;
67726;SDS011;54525;55.680;37.540;2022-08-20T01:38:49;15.20;;;11.98;;
67726;SDS011;54525;55.680;37.540;2022-08-20T01:43:50;18.20;;;11.75;;
67726;SDS011;54525;55.680;37.540;2022-08-20T01:46:31;22.10;;;12.07;;
67726;SDS011;54525;55.680;37.540;2022-08-20T01:49:10;26.38;;;12.40;;
67726;SDS011;54525;55.680;37.540;2022-08-20T01:51:52;15.77;;;10.63;;
67726;SDS011;54525;55.680;37.540;2022-08-20T01:54:20;16.60;;;11.25;;
67726;SDS011;54525;55.680;37.540;2022-08-20T01:57:03;19.17;;;10.75;;
67726;SDS011;54525;55.680;37.540;2022-08-20T01:59:28;20.67;;;11.13;;
67726;SDS011;54525;55.680;37.540;2022-08-20T02:01:54;16.95;;;9.82;;
67726;SDS011;54525;55.680;37.540;2022-08-20T02:04:21;16.40;;;10.32;;
67726;SDS011;54525;55.680;37.540;2022-08-20T02:06:48;14.25;;;9.32;;
67726;SDS011;54525;55.680;37.540;2022-08-20T02:09:17;16.73;;;9.23;;
67726;SDS011;54525;55.680;37.540;2022-08-20T02:11:43;15.38;;;10.00;;
67726;SDS011;54525;55.680;37.540;2022-08-20T02:14:10;17.65;;;9.50;;
67726;SDS011;54525;55.680;37.540;2022-08-20T02:16:37;15.73;;;9.25;;
67726;SDS011;54525;55.680;37.540;2022-08-20T02:19:25;16.20;;;9.45;;
67726;SDS011;54525;55.680;37.540;2022-08-20T02:21:56;15.40;;;9.02;;
67726;SDS011;54525;55.680;37.540;2022-08-20T02:24:24;11.18;;;7.88;;
67726;SDS011;54525;55.680;37.540;2022-08-20T02:26:50;11.23;;;7.32;;
67726;SDS011;54525;55.680;37.540;2022-08-20T02:29:16;11.82;;;8.63;;
67726;SDS011;54525;55.680;37.540;2022-08-20T02:31:43;13.23;;;7.80;;
67726;SDS011;54525;55.680;37.540;2022-08-20T02:34:10;21.42;;;7.75;;
67726;SDS011;54525;55.680;37.540;2022-08-20T02:36:37;10.30;;;7.40;;
67726;SDS011;54525;55.680;37.540;2022-08-20T02:39:05;14.15;;;7.68;;
67726;SDS011;54525;55.680;37.540;2022-08-20T02:41:34;12.18;;;7.30;;
67726;SDS011;54525;55.680;37.540;2022-08-20T02:44:01;10.73;;;7.75;;
67726;SDS011;54525;55.680;37.540;2022-08-20T02:46:28;10.68;;;6.32;;
67726;SDS011;54525;55.680;37.540;2022-08-20T02:48:54;15.15;;;6.85;;
67726;SDS011;54525;55.680;37.540;2022-08-20T02:51:20;12.63;;;6.35;;
67726;SDS011;54525;55.680;37.540;2022-08-20T02:53:45;8.55;;;6.13;;
67726;SDS011;54525;55.680;37.540;2022-08-20T02:56:11;10.18;;;6.30;;
67726;SDS011;54525;55.680;37.540;2022-08-20T02:58:37;9.88;;;6.15;;
67726;SDS011;54525;55.680;37.540;2022-08-20T03:01:04;14.38;;;7.35;;
67726;SDS011;54525;55.680;37.540;2022-08-20T03:03:31;17.83;;;8.43;;
67726;SDS011;54525;55.680;37.540;2022-08-20T03:05:57;17.83;;;10.85;;
67726;SDS011;54525;55.680;37.540;2022-08-20T03:08:24;14.00;;;10.10;;
67726;SDS011;54525;55.680;37.540;2022-08-20T03:10:51;17.77;;;12.32;;
67726;SDS011;54525;55.680;37.540;2022-08-20T03:13:17;19.65;;;13.85;;
67726;SDS011;54525;55.680;37.540;2022-08-20T03:15:45;29.83;;;18.02;;
67726;SDS011;54525;55.680;37.540;2022-08-20T03:18:13;21.73;;;13.75;;
67726;SDS011;54525;55.680;37.540;2022-08-20T03:20:40;28.92;;;19.48;;
67726;SDS011;54525;55.680;37.540;2022-08-20T03:23:06;24.58;;;16.17;;
67726;SDS011;54525;55.680;37.540;2022-08-20T03:25:32;26.77;;;19.52;;
67726;SDS011;54525;55.680;37.540;2022-08-20T03:27:58;29.98;;;20.17;;
67726;SDS011;54525;55.680;37.540;2022-08-20T03:30:24;31.63;;;24.15;;
67726;SDS011;54525;55.680;37.540;2022-08-20T03:32:51;32.15;;;22.38;;
67726;SDS011;54525;55.680;37.540;2022-08-20T03:35:18;40.17;;;26.33;;
67726;SDS011;54525;55.680;37.540;2022-08-20T03:37:46;39.58;;;25.48;;
67726;SDS011;54525;55.680;37.540;2022-08-20T03:40:14;38.17;;;24.50;;
67726;SDS011;54525;55.680;37.540;2022-08-20T03:42:42;34.22;;;23.80;;
67726;SDS011;54525;55.680;37.540;2022-08-20T03:45:08;37.97;;;25.23;;
67726;SDS011;54525;55.680;37.540;2022-08-20T03:47:36;36.95;;;25.13;;
67726;SDS011;54525;55.680;37.540;2022-08-20T03:50:03;34.17;;;23.83;;
67726;SDS011;54525;55.680;37.540;2022-08-20T03:52:30;34.92;;;23.23;;
67726;SDS011;54525;55.680;37.540;2022-08-20T03:54:55;41.80;;;24.30;;
67726;SDS011;54525;55.680;37.540;2022-08-20T03:57:21;31.73;;;22.80;;
67726;SDS011;54525;55.680;37.540;2022-08-20T03:59:47;38.60;;;21.13;;
67726;SDS011;54525;55.680;37.540;2022-08-20T04:02:13;31.85;;;20.45;;
67726;SDS011;54525;55.680;37.540;2022-08-20T04:04:39;30.27;;;19.17;;
67726;SDS011;54525;55.680;37.540;2022-08-20T04:07:12;34.70;;;17.17;;
67726;SDS011;54525;55.680;37.540;2022-08-20T04:09:40;25.70;;;17.73;;
67726;SDS011;54525;55.680;37.540;2022-08-20T04:12:08;29.80;;;17.35;;
67726;SDS011;54525;55.680;37.540;2022-08-20T04:14:36;27.35;;;17.90;;
67726;SDS011;54525;55.680;37.540;2022-08-20T04:17:07;25.85;;;16.98;;
67726;SDS011;54525;55.680;37.540;2022-08-20T04:19:35;27.13;;;17.92;;
67726;SDS011;54525;55.680;37.540;2022-08-20T04:22:00;28.92;;;17.48;;
67726;SDS011;54525;55.680;37.540;2022-08-20T04:24:26;30.88;;;17.00;;
67726;SDS011;54525;55.680;37.540;2022-08-20T04:26:52;21.95;;;16.65;;
67726;SDS011;54525;55.680;37.540;2022-08-20T04:29:19;26.13;;;16.30;;
67726;SDS011;54525;55.680;37.540;2022-08-20T04:31:45;33.05;;;17.95;;
67726;SDS011;54525;55.680;37.540;2022-08-20T04:34:11;26.75;;;17.38;;
67726;SDS011;54525;55.680;37.540;2022-08-20T04:36:37;25.20;;;18.20;;
67726;SDS011;54525;55.680;37.540;2022-08-20T04:39:02;25.70;;;16.80;;
67726;SDS011;54525;55.680;37.540;2022-08-20T04:41:28;27.00;;;15.35;;
67726;SDS011;54525;55.680;37.540;2022-08-20T04:43:54;30.77;;;16.30;;
67726;SDS011;54525;55.680;37.540;2022-08-20T04:46:21;26.98;;;16.92;;
67726;SDS011;54525;55.680;37.540;2022-08-20T04:48:49;23.75;;;14.73;;
67726;SDS011;54525;55.680;37.540;2022-08-20T04:51:15;29.17;;;16.35;;
67726;SDS011;54525;55.680;37.540;2022-08-20T04:53:40;23.52;;;15.40;;
67726;SDS011;54525;55.680;37.540;2022-08-20T04:56:06;25.55;;;14.73;;
67726;SDS011;54525;55.680;37.540;2022-08-20T04:58:33;24.83;;;14.15;;
67726;SDS011;54525;55.680;37.540;2022-08-20T05:01:03;28.95;;;13.70;;
67726;SDS011;54525;55.680;37.540;2022-08-20T05:03:31;19.10;;;14.00;;
67726;SDS011;54525;55.680;37.540;2022-08-20T05:05:57;20.30;;;13.02;;
67726;SDS011;54525;55.680;37.540;2022-08-20T05:08:23;22.55;;;13.27;;
67726;SDS011;54525;55.680;37.540;2022-08-20T05:10:50;23.92;;;12.57;;
67726;SDS011;54525;55.680;37.540;2022-08-20T05:13:17;20.65;;;12.48;;
67726;SDS011;54525;55.680;37.540;2022-08-20T05:15:43;20.60;;;12.55;;
67726;SDS011;54525;55.680;37.540;2022-08-20T05:18:12;22.98;;;12.52;;
67726;SDS011;54525;55.680;37.540;2022-08-20T05:20:41;20.55;;;12.85;;
67726;SDS011;54525;55.680;37.540;2022-08-20T05:23:08;23.52;;;12.40;;
67726;SDS011;54525;55.680;37.540;2022-08-20T05:25:35;25.05;;;11.88;;
67726;SDS011;54525;55.680;37.540;2022-08-20T05:28:06;19.48;;;11.48;;
67726;SDS011;54525;55.680;37.540;2022-08-20T05:30:38;21.42;;;12.02;;
67726;SDS011;54525;55.680;37.540;2022-08-20T05:33:06;20.15;;;12.20;;
67726;SDS011;54525;55.680;37.540;2022-08-20T05:35:33;22.15;;;10.70;;
67726;SDS011;54525;55.680;37.540;2022-08-20T05:38:02;19.02;;;11.13;;
67726;SDS011;54525;55.680;37.540;2022-08-20T05:40:29;19.48;;;12.02;;
67726;SDS011;54525;55.680;37.540;2022-08-20T05:42:55;20.40;;;11.10;;
67726;SDS011;54525;55.680;37.540;2022-08-20T05:45:20;18.27;;;11.95;;
67726;SDS011;54525;55.680;37.540;2022-08-20T05:47:46;20.80;;;11.50;;
67726;SDS011;54525;55.680;37.540;2022-08-20T05:50:13;19.70;;;11.57;;
67726;SDS011;54525;55.680;37.540;2022-08-20T05:52:40;20.08;;;10.60;;
67726;SDS011;54525;55.680;37.540;2022-08-20T05:55:06;18.15;;;10.55;;
67726;SDS011;54525;55.680;37.540;2022-08-20T05:57:33;21.88;;;11.60;;
67726;SDS011;54525;55.680;37.540;2022-08-20T06:00:00;18.80;;;11.90;;
67726;SDS011;54525;55.680;37.540;2022-08-20T06:02:27;19.23;;;10.00;;
67726;SDS011;54525;55.680;37.540;2022-08-20T06:05:11;19.40;;;11.20;;
67726;SDS011;54525;55.680;37.540;2022-08-20T06:07:37;20.23;;;10.52;;
67726;SDS011;54525;55.680;37.540;2022-08-20T06:10:03;18.05;;;10.35;;
67726;SDS011;54525;55.680;37.540;2022-08-20T06:12:29;18.77;;;9.57;;
67726;SDS011;54525;55.680;37.540;2022-08-20T06:14:55;14.25;;;9.57;;
67726;SDS011;54525;55.680;37.540;2022-08-20T06:17:20;18.13;;;9.32;;
67726;SDS011;54525;55.680;37.540;2022-08-20T06:19:47;20.42;;;9.13;;
67726;SDS011;54525;55.680;37.540;2022-08-20T06:22:12;19.88;;;9.02;;
67726;SDS011;54525;55.680;37.540;2022-08-20T06:24:39;16.10;;;8.73;;
67726;SDS011;54525;55.680;37.540;2022-08-20T06:27:04;12.50;;;7.72;;
67726;SDS011;54525;55.680;37.540;2022-08-20T06:29:31;15.55;;;7.70;;
67726;SDS011;54525;55.680;37.540;2022-08-20T06:31:59;19.15;;;8.25;;
67726;SDS011;54525;55.680;37.540;2022-08-20T06:34:25;16.05;;;7.95;;
67726;SDS011;54525;55.680;37.540;2022-08-20T06:36:55;14.18;;;7.50;;
67726;SDS011;54525;55.680;37.540;2022-08-20T06:39:21;11.93;;;7.10;;
67726;SDS011;54525;55.680;37.540;2022-08-20T06:41:48;21.23;;;7.55;;
67726;SDS011;54525;55.680;37.540;2022-08-20T06:44:15;14.52;;;7.03;;
67726;SDS011;54525;55.680;37.540;2022-08-20T06:46:41;13.50;;;6.72;;
67726;SDS011;54525;55.680;37.540;2022-08-20T06:49:08;16.58;;;6.88;;
67726;SDS011;54525;55.680;37.540;2022-08-20T06:51:33;14.70;;;6.65;;
67726;SDS011;54525;55.680;37.540;2022-08-20T06:54:01;15.38;;;6.05;;
67726;SDS011;54525;55.680;37.540;2022-08-20T06:56:27;11.10;;;6.18;;
67726;SDS011;54525;55.680;37.540;2022-08-20T06:58:53;12.32;;;6.35;;
67726;SDS011;54525;55.680;37.540;2022-08-20T07:01:19;13.32;;;5.38;;
67726;SDS011;54525;55.680;37.540;2022-08-20T07:03:45;11.60;;;5.38;;
67726;SDS011;54525;55.680;37.540;2022-08-20T07:06:13;10.10;;;5.53;;
67726;SDS011;54525;55.680;37.540;2022-08-20T07:08:40;11.07;;;5.82;;
67726;SDS011;54525;55.680;37.540;2022-08-20T07:11:06;16.80;;;5.80;;
67726;SDS011;54525;55.680;37.540;2022-08-20T07:13:32;16.63;;;5.65;;
67726;SDS011;54525;55.680;37.540;2022-08-20T07:15:57;12.63;;;5.95;;
67726;SDS011;54525;55.680;37.540;2022-08-20T07:18:22;11.90;;;5.45;;
67726;SDS011;54525;55.680;37.540;2022-08-20T07:20:48;11.15;;;5.18;;
67726;SDS011;54525;55.680;37.540;2022-08-20T07:23:14;13.55;;;5.68;;
67726;SDS011;54525;55.680;37.540;2022-08-20T07:25:40;12.25;;;4.80;;
67726;SDS011;54525;55.680;37.540;2022-08-20T07:28:10;14.15;;;4.72;;
67726;SDS011;54525;55.680;37.540;2022-08-20T07:30:39;15.43;;;5.07;;
67726;SDS011;54525;55.680;37.540;2022-08-20T07:33:24;13.25;;;5.05;;
67726;SDS011;54525;55.680;37.540;2022-08-20T07:35:50;15.38;;;4.72;;
67726;SDS011;54525;55.680;37.540;2022-08-20T07:38:20;13.13;;;4.90;;
67726;SDS011;54525;55.680;37.540;2022-08-20T07:40:54;13.90;;;5.43;;
67726;SDS011;54525;55.680;37.540;2022-08-20T07:43:21;11.45;;;4.78;;
67726;SDS011;54525;55.680;37.540;2022-08-20T07:45:51;18.67;;;4.53;;
67726;SDS011;54525;55.680;37.540;2022-08-20T07:48:22;8.40;;;3.95;;
67726;SDS011;54525;55.680;37.540;2022-08-20T07:50:53;12.85;;;4.25;;
67726;SDS011;54525;55.680;37.540;2022-08-20T07:53:19;14.07;;;4.93;;
67726;SDS011;54525;55.680;37.540;2022-08-20T07:55:45;7.90;;;4.28;;
67726;SDS011;54525;55.680;37.540;2022-08-20T07:58:13;12.73;;;4.32;;
67726;SDS011;54525;55.680;37.540;2022-08-20T08:00:41;11.20;;;4.78;;
67726;SDS011;54525;55.680;37.540;2022-08-20T08:03:06;10.18;;;4.72;;
67726;SDS011;54525;55.680;37.540;2022-08-20T08:05:34;7.63;;;4.18;;
67726;SDS011;54525;55.680;37.540;2022-08-20T08:08:02;12.73;;;4.43;;
67726;SDS011;54525;55.680;37.540;2022-08-20T08:10:30;6.88;;;4.55;;
67726;SDS011;54525;55.680;37.540;2022-08-20T08:12:58;13.50;;;4.55;;
67726;SDS011;54525;55.680;37.540;2022-08-20T08:15:27;13.43;;;4.40;;
67726;SDS011;54525;55.680;37.540;2022-08-20T08:18:01;8.38;;;3.75;;
67726;SDS011;54525;55.680;37.540;2022-08-20T08:20:32;13.63;;;4.65;;
67726;SDS011;54525;55.680;37.540;2022-08-20T08:23:03;13.73;;;4.20;;
67726;SDS011;54525;55.680;37.540;2022-08-20T08:25:28;12.57;;;3.92;;
67726;SDS011;54525;55.680;37.540;2022-08-20T08:27:56;14.60;;;4.05;;
67726;SDS011;54525;55.680;37.540;2022-08-20T08:30:24;14.38;;;4.90;;
67726;SDS011;54525;55.680;37.540;2022-08-20T08:32:51;10.18;;;4.63;;
67726;SDS011;54525;55.680;37.540;2022-08-20T08:35:38;10.45;;;4.55;;
67726;SDS011;54525;55.680;37.540;2022-08-20T08:38:04;11.27;;;4.50;;
67726;SDS011;54525;55.680;37.540;2022-08-20T08:40:30;12.77;;;5.53;;
67726;SDS011;54525;55.680;37.540;2022-08-20T08:42:57;14.15;;;4.82;;
67726;SDS011;54525;55.680;37.540;2022-08-20T08:45:28;14.60;;;5.00;;
67726;SDS011;54525;55.680;37.540;2022-08-20T08:48:06;12.68;;;4.50;;
67726;SDS011;54525;55.680;37.540;2022-08-20T08:50:32;11.45;;;5.38;;
67726;SDS011;54525;55.680;37.540;2022-08-20T08:52:59;10.98;;;6.35;;
67726;SDS011;54525;55.680;37.540;2022-08-20T08:55:27;16.25;;;6.18;;
67726;SDS011;54525;55.680;37.540;2022-08-20T08:57:55;10.43;;;5.82;;
67726;SDS011;54525;55.680;37.540;2022-08-20T09:00:24;13.05;;;5.05;;
67726;SDS011;54525;55.680;37.540;2022-08-20T09:02:53;12.05;;;4.88;;
67726;SDS011;54525;55.680;37.540;2022-08-20T09:05:25;19.58;;;6.13;;
67726;SDS011;54525;55.680;37.540;2022-08-20T09:07:55;19.35;;;6.53;;
67726;SDS011;54525;55.680;37.540;2022-08-20T09:10:22;9.75;;;5.35;;
67726;SDS011;54525;55.680;37.540;2022-08-20T09:12:48;11.10;;;5.72;;
67726;SDS011;54525;55.680;37.540;2022-08-20T09:15:13;13.75;;;6.97;;
67726;SDS011;54525;55.680;37.540;2022-08-20T09:17:40;17.05;;;6.68;;
67726;SDS011;54525;55.680;37.540;2022-08-20T09:20:06;16.60;;;7.55;;
67726;SDS011;54525;55.680;37.540;2022-08-20T09:22:33;13.65;;;6.57;;
67726;SDS011;54525;55.680;37.540;2022-08-20T09:24:58;13.63;;;6.40;;
67726;SDS011;54525;55.680;37.540;2022-08-20T09:27:25;14.63;;;7.55;;
67726;SDS011;54525;55.680;37.540;2022-08-20T09:29:50;19.10;;;7.93;;
67726;SDS011;54525;55.680;37.540;2022-08-20T09:32:20;11.43;;;7.00;;
67726;SDS011;54525;55.680;37.540;2022-08-20T09:34:50;14.82;;;7.57;;
67726;SDS011;54525;55.680;37.540;2022-08-20T09:37:21;16.95;;;7.78;;
67726;SDS011;54525;55.680;37.540;2022-08-20T09:39:48;15.55;;;7.93;;
67726;SDS011;54525;55.680;37.540;2022-08-20T09:42:15;18.73;;;8.68;;
67726;SDS011;54525;55.680;37.540;2022-08-20T09:44:45;13.25;;;8.05;;
67726;SDS011;54525;55.680;37.540;2022-08-20T09:47:11;16.83;;;8.85;;
67726;SDS011;54525;55.680;37.540;2022-08-20T09:49:37;12.68;;;8.02;;
67726;SDS011;54525;55.680;37.540;2022-08-20T09:52:04;16.55;;;9.18;;
67726;SDS011;54525;55.680;37.540;2022-08-20T09:54:33;18.73;;;10.85;;
67726;SDS011;54525;55.680;37.540;2022-08-20T09:56:59;17.83;;;10.35;;
67726;SDS011;54525;55.680;37.540;2022-08-20T09:59:27;24.15;;;11.82;;
67726;SDS011;54525;55.680;37.540;2022-08-20T10:01:55;20.60;;;11.85;;
67726;SDS011;54525;55.680;37.540;2022-08-20T10:04:20;23.33;;;11.35;;
67726;SDS011;54525;55.680;37.540;2022-08-20T10:06:46;21.42;;;11.25;;
67726;SDS011;54525;55.680;37.540;2022-08-20T10:09:11;23.65;;;11.57;;
67726;SDS011;54525;55.680;37.540;2022-08-20T10:11:37;19.80;;;10.93;;
67726;SDS011;54525;55.680;37.540;2022-08-20T10:14:03;25.73;;;11.40;;
67726;SDS011;54525;55.680;37.540;2022-08-20T10:16:28;20.90;;;11.95;;
67726;SDS011;54525;55.680;37.540;2022-08-20T10:18:54;22.13;;;11.15;;
67726;SDS011;54525;55.680;37.540;2022-08-20T10:21:20;27.80;;;11.40;;
67726;SDS011;54525;55.680;37.540;2022-08-20T10:23:46;19.92;;;11.68;;
67726;SDS011;54525;55.680;37.540;2022-08-20T10:26:11;16.63;;;10.75;;
67726;SDS011;54525;55.680;37.540;2022-08-20T10:28:37;21.92;;;11.85;;
67726;SDS011;54525;55.680;37.540;2022-08-20T10:31:07;19.52;;;11.45;;
67726;SDS011;54525;55.680;37.540;2022-08-20T10:33:34;16.13;;;10.60;;
67726;SDS011;54525;55.680;37.540;2022-08-20T10:36:10;17.95;;;11.25;;
67726;SDS011;54525;55.680;37.540;2022-08-20T10:38:37;22.90;;;10.18;;
67726;SDS011;54525;55.680;37.540;2022-08-20T10:41:03;15.32;;;9.90;;
67726;SDS011;54525;55.680;37.540;2022-08-20T10:43:29;17.25;;;10.20;;
67726;SDS011;54525;55.680;37.540;2022-08-20T10:45:55;15.07;;;9.15;;
67726;SDS011;54525;55.680;37.540;2022-08-20T10:48:20;18.45;;;9.90;;
67726;SDS011;54525;55.680;37.540;2022-08-20T10:50:47;15.20;;;9.65;;
67726;SDS011;54525;55.680;37.540;2022-08-20T10:53:13;16.38;;;8.48;;
67726;SDS011;54525;55.680;37.540;2022-08-20T10:55:38;12.15;;;8.90;;
67726;SDS011;54525;55.680;37.540;2022-08-20T10:58:04;12.98;;;8.52;;
67726;SDS011;54525;55.680;37.540;2022-08-20T11:00:30;12.07;;;8.48;;
67726;SDS011;54525;55.680;37.540;2022-08-20T11:02:56;12.77;;;9.07;;
67726;SDS011;54525;55.680;37.540;2022-08-20T11:05:21;12.13;;;8.02;;
67726;SDS011;54525;55.680;37.540;2022-08-20T11:07:47;13.05;;;8.20;;
67726;SDS011;54525;55.680;37.540;2022-08-20T11:10:13;11.52;;;7.75;;
67726;SDS011;54525;55.680;37.540;2022-08-20T11:12:39;18.50;;;8.18;;
67726;SDS011;54525;55.680;37.540;2022-08-20T11:15:05;11.82;;;7.25;;
67726;SDS011;54525;55.680;37.540;2022-08-20T11:17:34;21.48;;;7.72;;
67726;SDS011;54525;55.680;37.540;2022-08-20T11:20:03;16.35;;;8.00;;
67726;SDS011;54525;55.680;37.540;2022-08-20T11:22:31;14.57;;;6.97;;
67726;SDS011;54525;55.680;37.540;2022-08-20T11:24:57;12.70;;;6.75;;
67726;SDS011;54525;55.680;37.540;2022-08-20T11:27:30;16.02;;;7.30;;
67726;SDS011;54525;55.680;37.540;2022-08-20T11:29:57;13.75;;;6.78;;
67726;SDS011;54525;55.680;37.540;2022-08-20T11:32:23;12.80;;;6.32;;
67726;SDS011;54525;55.680;37.540;2022-08-20T11:34:49;8.38;;;5.68;;
67726;SDS011;54525;55.680;37.540;2022-08-20T11:37:15;12.98;;;6.53;;
67726;SDS011;54525;55.680;37.540;2022-08-20T11:39:43;12.70;;;6.03;;
67726;SDS011;54525;55.680;37.540;2022-08-20T11:42:09;14.77;;;5.75;;
67726;SDS011;54525;55.680;37.540;2022-08-20T11:44:35;10.82;;;5.72;;
67726;SDS011;54525;55.680;37.540;2022-08-20T11:47:01;15.38;;;5.45;;
67726;SDS011;54525;55.680;37.540;2022-08-20T11:49:31;11.98;;;6.30;;
67726;SDS011;54525;55.680;37.540;2022-08-20T11:51:59;17.10;;;4.82;;
67726;SDS011;54525;55.680;37.540;2022-08-20T11:54:25;10.98;;;4.78;;
67726;SDS011;54525;55.680;37.540;2022-08-20T11:56:53;10.10;;;4.15;;
67726;SDS011;54525;55.680;37.540;2022-08-20T11:59:22;9.40;;;4.28;;
67726;SDS011;54525;55.680;37.540;2022-08-20T12:01:49;10.48;;;4.15;;
67726;SDS011;54525;55.680;37.540;2022-08-20T12:04:14;8.88;;;3.95;;
67726;SDS011;54525;55.680;37.540;2022-08-20T12:06:40;12.60;;;4.05;;
67726;SDS011;54525;55.680;37.540;2022-08-20T12:09:05;9.82;;;3.53;;
67726;SDS011;54525;55.680;37.540;2022-08-20T12:11:31;7.32;;;4.68;;
67726;SDS011;54525;55.680;37.540;2022-08-20T12:13:56;8.00;;;4.35;;
67726;SDS011;54525;55.680;37.540;2022-08-20T12:16:22;8.10;;;4.35;;
67726;SDS011;54525;55.680;37.540;2022-08-20T12:18:47;7.78;;;3.67;;
67726;SDS011;54525;55.680;37.540;2022-08-20T12:21:13;6.85;;;3.78;;
67726;SDS011;54525;55.680;37.540;2022-08-20T12:23:39;7.90;;;3.60;;
67726;SDS011;54525;55.680;37.540;2022-08-20T12:26:04;12.90;;;3.80;;
67726;SDS011;54525;55.680;37.540;2022-08-20T12:28:30;11.05;;;4.65;;
67726;SDS011;54525;55.680;37.540;2022-08-20T12:30:56;11.77;;;3.97;;
67726;SDS011;54525;55.680;37.540;2022-08-20T12:33:21;13.82;;;3.88;;
67726;SDS011;54525;55.680;37.540;2022-08-20T12:35:47;9.27;;;3.53;;
67726;SDS011;54525;55.680;37.540;2022-08-20T12:38:13;13.32;;;4.07;;
67726;SDS011;54525;55.680;37.540;2022-08-20T12:40:38;8.75;;;3.70;;
67726;SDS011;54525;55.680;37.540;2022-08-20T12:43:04;9.15;;;3.42;;
67726;SDS011;54525;55.680;37.540;2022-08-20T12:45:31;17.40;;;3.85;;
67726;SDS011;54525;55.680;37.540;2022-08-20T12:48:06;15.05;;;4.35;;
67726;SDS011;54525;55.680;37.540;2022-08-20T12:50:35;9.50;;;3.47;;
67726;SDS011;54525;55.680;37.540;2022-08-20T12:53:01;11.02;;;3.90;;
67726;SDS011;54525;55.680;37.540;2022-08-20T12:55:28;7.50;;;3.78;;
67726;SDS011;54525;55.680;37.540;2022-08-20T12:57:55;7.38;;;3.70;;
67726;SDS011;54525;55.680;37.540;2022-08-20T13:02:58;8.07;;;4.88;;
67726;SDS011;54525;55.680;37.540;2022-08-20T13:05:25;13.57;;;3.83;;
67726;SDS011;54525;55.680;37.540;2022-08-20T13:07:51;9.68;;;4.35;;
67726;SDS011;54525;55.680;37.540;2022-08-20T13:10:19;10.10;;;3.95;;
67726;SDS011;54525;55.680;37.540;2022-08-20T13:12:50;12.18;;;4.60;;
67726;SDS011;54525;55.680;37.540;2022-08-20T13:15:16;10.35;;;3.50;;
67726;SDS011;54525;55.680;37.540;2022-08-20T13:17:42;14.65;;;4.68;;
67726;SDS011;54525;55.680;37.540;2022-08-20T13:20:11;16.65;;;4.88;;
67726;SDS011;54525;55.680;37.540;2022-08-20T13:22:39;8.73;;;3.75;;
67726;SDS011;54525;55.680;37.540;2022-08-20T13:25:05;11.57;;;4.85;;
67726;SDS011;54525;55.680;37.540;2022-08-20T13:27:31;9.30;;;5.07;;
67726;SDS011;54525;55.680;37.540;2022-08-20T13:29:57;12.43;;;4.97;;
67726;SDS011;54525;55.680;37.540;2022-08-20T13:32:22;14.98;;;4.93;;
67726;SDS011;54525;55.680;37.540;2022-08-20T13:34:50;12.43;;;4.53;;
67726;SDS011;54525;55.680;37.540;2022-08-20T13:37:17;7.63;;;4.68;;
67726;SDS011;54525;55.680;37.540;2022-08-20T13:39:52;13.73;;;5.78;;
67726;SDS011;54525;55.680;37.540;2022-08-20T13:42:19;9.38;;;5.10;;
67726;SDS011;54525;55.680;37.540;2022-08-20T13:44:44;13.40;;;5.05;;
67726;SDS011;54525;55.680;37.540;2022-08-20T13:50:00;19.75;;;7.00;;
67726;SDS011;54525;55.680;37.540;2022-08-20T13:52:33;12.75;;;5.88;;
67726;SDS011;54525;55.680;37.540;2022-08-20T13:55:00;17.38;;;6.60;;
67726;SDS011;54525;55.680;37.540;2022-08-20T13:57:26;9.32;;;5.68;;
67726;SDS011;54525;55.680;37.540;2022-08-20T13:59:54;12.30;;;6.20;;
67726;SDS011;54525;55.680;37.540;2022-08-20T14:02:21;12.85;;;6.18;;
67726;SDS011;54525;55.680;37.540;2022-08-20T14:04:48;14.43;;;7.35;;
67726;SDS011;54525;55.680;37.540;2022-08-20T14:07:16;11.88;;;7.10;;
67726;SDS011;54525;55.680;37.540;2022-08-20T14:09:45;14.52;;;7.35;;
67726;SDS011;54525;55.680;37.540;2022-08-20T14:12:12;13.23;;;7.53;;
67726;SDS011;54525;55.680;37.540;2022-08-20T14:14:39;11.63;;;6.95;;
67726;SDS011;54525;55.680;37.540;2022-08-20T14:19:52;12.65;;;7.10;;
67726;SDS011;54525;55.680;37.540;2022-08-20T14:24:48;12.30;;;7.22;;
67726;SDS011;54525;55.680;37.540;2022-08-20T14:27:15;12.90;;;7.93;;
67726;SDS011;54525;55.680;37.540;2022-08-20T14:29:43;14.65;;;8.27;;
67726;SDS011;54525;55.680;37.540;2022-08-20T14:32:10;17.23;;;8.38;;
67726;SDS011;54525;55.680;37.540;2022-08-20T14:34:36;11.98;;;6.70;;
67726;SDS011;54525;55.680;37.540;2022-08-20T14:37:12;12.85;;;6.47;;
67726;SDS011;54525;55.680;37.540;2022-08-20T14:39:43;9.90;;;6.88;;